createdAt,value
2022-08-17T00:01:51.889Z,8.98
2022-08-17T00:04:22.193Z,8.67
2022-08-17T00:06:52.267Z,8.43
2022-08-17T00:09:21.789Z,8.30
2022-08-17T00:12:42.930Z,9.68
2022-08-17T00:14:46.680Z,8.65
2022-08-17T00:17:16.132Z,8.40
2022-08-17T00:19:45.404Z,8.50
2022-08-17T00:22:32.277Z,8.05
2022-08-17T00:25:05.874Z,7.40
2022-08-17T00:27:35.282Z,8.07
2022-08-17T00:30:07.712Z,9.00
2022-08-17T00:33:23.382Z,7.93
2022-08-17T00:35:38.837Z,8.10
2022-08-17T00:38:11.098Z,9.43
2022-08-17T00:40:47.978Z,8.82
2022-08-17T00:43:37.121Z,8.60
2022-08-17T00:46:16.840Z,9.07
2022-08-17T00:48:46.931Z,8.75
2022-08-17T00:51:25.295Z,9.30
2022-08-17T00:54:20.516Z,9.35
2022-08-17T00:57:12.160Z,9.50
2022-08-17T00:59:50.567Z,8.40
2022-08-17T01:02:41.479Z,9.43
2022-08-17T01:05:21.598Z,8.63
2022-08-17T01:07:54.188Z,8.38
2022-08-17T01:10:58.798Z,8.27
2022-08-17T01:13:21.329Z,8.63
2022-08-17T01:16:14.030Z,8.55
2022-08-17T01:18:43.520Z,8.63
2022-08-17T01:21:20.650Z,8.82
2022-08-17T01:23:50.216Z,8.87
2022-08-17T01:26:20.706Z,9.55
2022-08-17T01:28:53.792Z,9.05
2022-08-17T01:31:27.271Z,8.80
2022-08-17T01:33:56.654Z,8.68
2022-08-17T01:36:26.254Z,8.90
2022-08-17T01:38:57.086Z,9.43
2022-08-17T01:41:26.760Z,10.98
2022-08-17T01:44:06.937Z,10.15
2022-08-17T01:46:38.265Z,9.63
2022-08-17T01:49:15.267Z,8.57
2022-08-17T01:51:44.603Z,9.75
2022-08-17T01:54:17.135Z,8.98
2022-08-17T01:56:50.904Z,8.88
2022-08-17T01:59:21.877Z,8.55
2022-08-17T02:01:51.885Z,8.73
2022-08-17T02:04:21.120Z,9.07
2022-08-17T02:06:53.299Z,9.57
2022-08-17T02:09:27.187Z,9.30
2022-08-17T02:12:04.772Z,8.68
2022-08-17T02:14:50.227Z,9.77
2022-08-17T02:17:19.767Z,10.10
2022-08-17T02:19:49.018Z,9.05
2022-08-17T02:22:19.504Z,9.43
2022-08-17T02:24:59.440Z,10.70
2022-08-17T02:27:31.327Z,12.73
2022-08-17T02:30:00.610Z,9.98
2022-08-17T02:32:29.817Z,9.77
2022-08-17T02:34:59.919Z,9.80
2022-08-17T02:37:30.068Z,10.38
2022-08-17T02:40:00.752Z,8.90
2022-08-17T02:42:35.171Z,8.88
2022-08-17T02:45:12.375Z,9.13
2022-08-17T02:47:42.690Z,9.40
2022-08-17T02:50:14.409Z,9.45
2022-08-17T02:52:47.477Z,9.50
2022-08-17T02:55:30.162Z,9.80
2022-08-17T02:57:59.460Z,10.18
2022-08-17T03:00:36.588Z,9.95
2022-08-17T03:03:07.548Z,10.02
2022-08-17T03:05:39.599Z,10.70
2022-08-17T03:08:11.726Z,9.32
2022-08-17T03:10:44.164Z,10.15
2022-08-17T03:13:15.710Z,9.73
2022-08-17T03:15:46.785Z,9.90
2022-08-17T03:18:21.951Z,9.60
2022-08-17T03:20:58.960Z,9.55
2022-08-17T03:23:29.709Z,9.82
2022-08-17T03:26:00.684Z,9.85
2022-08-17T03:28:30.182Z,11.27
2022-08-17T03:30:59.686Z,10.73
2022-08-17T03:33:28.892Z,9.10
2022-08-17T03:35:58.355Z,9.88
2022-08-17T03:38:29.129Z,10.07
2022-08-17T03:41:08.994Z,10.93
2022-08-17T03:43:38.650Z,11.87
2022-08-17T03:46:28.273Z,10.25
2022-08-17T03:49:24.450Z,10.00
2022-08-17T03:52:12.387Z,10.57
2022-08-17T03:55:00.233Z,10.48
2022-08-17T03:57:30.410Z,13.23
2022-08-17T04:00:01.030Z,11.77
2022-08-17T04:02:33.716Z,11.57
2022-08-17T04:05:02.978Z,11.35
2022-08-17T04:07:33.253Z,10.25
2022-08-17T04:10:02.866Z,10.93
2022-08-17T04:12:49.444Z,10.80
2022-08-17T04:15:19.815Z,10.55
2022-08-17T04:17:49.583Z,10.13
2022-08-17T04:20:20.989Z,10.82
2022-08-17T04:23:03.410Z,10.27
2022-08-17T04:25:36.396Z,11.05
2022-08-17T04:28:07.669Z,11.38
2022-08-17T04:30:46.412Z,11.13
2022-08-17T04:33:18.545Z,12.00
2022-08-17T04:35:50.495Z,11.83
2022-08-17T04:38:22.726Z,11.27
2022-08-17T04:41:10.292Z,12.90
2022-08-17T04:43:41.955Z,11.50
2022-08-17T04:46:20.605Z,12.25
2022-08-17T04:48:51.969Z,10.97
2022-08-17T04:51:24.795Z,13.85
2022-08-17T04:53:56.668Z,13.45
2022-08-17T04:56:27.532Z,13.32
2022-08-17T04:58:59.821Z,13.63
2022-08-17T05:01:31.696Z,12.37
2022-08-17T05:04:33.066Z,13.77
2022-08-17T05:06:57.705Z,13.70
2022-08-17T05:09:27.469Z,13.18
2022-08-17T05:11:56.659Z,13.50
2022-08-17T05:14:32.951Z,15.10
2022-08-17T05:17:04.146Z,14.60
2022-08-17T05:19:38.676Z,13.57
2022-08-17T05:22:08.165Z,14.25
2022-08-17T05:24:39.852Z,15.68
2022-08-17T05:27:15.893Z,14.30
2022-08-17T05:29:48.462Z,14.07
2022-08-17T05:32:38.034Z,14.60
2022-08-17T05:35:08.356Z,14.07
2022-08-17T05:37:37.539Z,14.98
2022-08-17T05:40:07.644Z,14.73
2022-08-17T05:42:36.920Z,13.55
2022-08-17T05:45:07.300Z,13.93
2022-08-17T05:47:36.655Z,14.48
2022-08-17T05:50:10.438Z,13.98
2022-08-17T05:53:13.733Z,13.53
2022-08-17T05:56:04.241Z,13.73
2022-08-17T05:58:35.623Z,14.38
2022-08-17T06:01:29.659Z,16.48
2022-08-17T06:04:35.346Z,14.65
2022-08-17T06:07:24.066Z,15.40
2022-08-17T06:10:07.957Z,14.98
2022-08-17T06:13:06.070Z,15.50
2022-08-17T06:16:03.672Z,15.55
2022-08-17T06:19:13.796Z,15.40
2022-08-17T06:21:47.095Z,15.77
2022-08-17T06:24:45.259Z,15.15
2022-08-17T06:27:25.738Z,15.60
2022-08-17T06:30:10.440Z,16.35
2022-08-17T06:32:45.882Z,14.85
2022-08-17T06:35:19.732Z,15.97
2022-08-17T06:38:01.366Z,16.50
2022-08-17T06:40:56.533Z,16.50
2022-08-17T06:43:25.802Z,14.60
2022-08-17T06:45:59.795Z,14.70
2022-08-17T06:48:48.344Z,16.17
2022-08-17T06:51:33.086Z,17.08
2022-08-17T06:54:09.087Z,17.17
2022-08-17T06:57:07.767Z,15.90
2022-08-17T07:00:15.689Z,16.40
2022-08-17T07:03:07.248Z,16.17
2022-08-17T07:05:48.564Z,16.08
2022-08-17T07:08:46.774Z,16.42
2022-08-17T07:11:20.518Z,16.30
2022-08-17T07:14:17.156Z,15.85
2022-08-17T07:16:52.936Z,16.97
2022-08-17T07:19:24.664Z,17.58
2022-08-17T07:21:53.844Z,17.35
2022-08-17T07:24:34.502Z,16.27
2022-08-17T07:27:28.968Z,16.05
2022-08-17T07:30:21.053Z,15.47
2022-08-17T07:33:00.497Z,16.60
2022-08-17T07:35:44.198Z,15.50
2022-08-17T07:38:24.820Z,14.75
2022-08-17T07:40:58.897Z,15.60
2022-08-17T07:43:53.494Z,15.23
2022-08-17T07:46:54.165Z,14.93
2022-08-17T07:49:27.202Z,16.20
2022-08-17T07:52:48.379Z,15.75
2022-08-17T07:54:55.696Z,14.27
2022-08-17T07:57:39.454Z,15.80
2022-08-17T08:00:18.143Z,15.43
2022-08-17T08:02:59.897Z,14.68
2022-08-17T08:05:49.656Z,16.33
2022-08-17T08:08:44.534Z,14.52
2022-08-17T08:11:16.853Z,15.77
2022-08-17T08:13:47.275Z,15.27
2022-08-17T08:16:28.850Z,15.93
2022-08-17T08:19:03.402Z,14.23
2022-08-17T08:21:49.493Z,15.48
2022-08-17T08:24:44.299Z,15.57
2022-08-17T08:27:46.723Z,15.13
2022-08-17T08:30:26.869Z,15.60
2022-08-17T08:33:28.279Z,15.50
2022-08-17T08:36:00.793Z,15.80
2022-08-17T08:38:46.672Z,13.97
2022-08-17T08:41:18.897Z,15.48
2022-08-17T08:44:07.316Z,14.75
2022-08-17T08:46:50.309Z,15.48
2022-08-17T08:50:05.005Z,15.00
2022-08-17T08:52:52.073Z,15.53
2022-08-17T08:55:58.501Z,14.43
2022-08-17T08:58:52.446Z,14.68
2022-08-17T09:01:34.671Z,13.85
2022-08-17T09:04:29.977Z,14.98
2022-08-17T09:07:29.364Z,14.03
2022-08-17T09:09:59.445Z,16.23
2022-08-17T09:12:48.902Z,15.95
2022-08-17T09:15:28.853Z,15.43
2022-08-17T09:19:00.068Z,14.93
2022-08-17T09:21:35.461Z,15.23
2022-08-17T09:24:26.270Z,14.43
2022-08-17T09:27:03.033Z,14.35
2022-08-17T09:29:36.488Z,14.68
2022-08-17T09:32:14.048Z,15.10
2022-08-17T09:34:56.207Z,14.37
2022-08-17T09:37:35.803Z,14.95
2022-08-17T09:40:25.300Z,14.50
2022-08-17T09:43:06.555Z,14.13
2022-08-17T09:46:07.624Z,13.60
2022-08-17T09:48:46.947Z,14.60
2022-08-17T09:51:24.376Z,14.88
2022-08-17T09:53:53.642Z,14.50
2022-08-17T09:56:46.224Z,14.65
2022-08-17T09:59:39.095Z,14.32
2022-08-17T10:02:41.808Z,13.57
2022-08-17T10:05:42.635Z,13.65
2022-08-17T10:08:33.370Z,13.52
2022-08-17T10:11:20.505Z,14.20
2022-08-17T10:14:36.899Z,14.48
2022-08-17T10:17:13.994Z,13.47
2022-08-17T10:19:56.585Z,13.68
2022-08-17T10:23:02.379Z,13.95
2022-08-17T10:26:23.590Z,13.68
2022-08-17T10:28:59.475Z,12.75
2022-08-17T10:31:51.883Z,13.57
2022-08-17T10:34:42.315Z,14.30
2022-08-17T10:37:38.807Z,11.95
2022-08-17T10:40:17.061Z,12.18
2022-08-17T10:43:04.122Z,12.80
2022-08-17T10:45:51.373Z,12.50
2022-08-17T10:48:42.063Z,12.65
2022-08-17T10:51:39.298Z,12.70
2022-08-17T10:54:09.373Z,12.20
2022-08-17T10:56:45.296Z,12.10
2022-08-17T10:59:37.135Z,12.67
2022-08-17T11:02:21.346Z,13.32
2022-08-17T11:05:08.207Z,12.93
2022-08-17T11:08:29.009Z,11.93
2022-08-17T11:11:14.856Z,11.65
2022-08-17T11:14:07.491Z,11.80
2022-08-17T11:16:43.043Z,11.98
2022-08-17T11:19:42.690Z,11.27
2022-08-17T11:22:48.024Z,11.55
2022-08-17T11:25:18.518Z,11.52
2022-08-17T11:27:54.869Z,11.57
2022-08-17T11:30:43.614Z,12.13
2022-08-17T11:33:46.144Z,11.82
2022-08-17T11:36:34.715Z,11.55
2022-08-17T11:39:08.956Z,11.35
2022-08-17T11:41:52.250Z,11.53
2022-08-17T11:44:42.064Z,10.85
2022-08-17T11:47:38.403Z,10.88
2022-08-17T11:50:36.923Z,11.05
2022-08-17T11:53:06.707Z,10.88
2022-08-17T11:55:44.349Z,11.30
2022-08-17T11:58:31.975Z,11.13
2022-08-17T12:01:02.219Z,11.00
2022-08-17T12:03:38.094Z,10.73
2022-08-17T12:06:24.243Z,10.20
2022-08-17T12:09:14.453Z,11.80
2022-08-17T12:11:56.359Z,11.27
2022-08-17T12:15:07.975Z,11.07
2022-08-17T12:17:40.691Z,10.85
2022-08-17T12:20:37.128Z,10.50
2022-08-17T12:23:36.987Z,11.23
2022-08-17T12:26:23.243Z,10.65
2022-08-17T12:29:02.116Z,10.32
2022-08-17T12:31:49.028Z,10.80
2022-08-17T12:34:24.471Z,10.65
2022-08-17T12:37:00.335Z,10.20
2022-08-17T12:39:34.024Z,10.80
2022-08-17T12:42:04.249Z,10.30
2022-08-17T12:44:42.591Z,10.05
2022-08-17T12:47:22.545Z,10.43
2022-08-17T12:49:54.940Z,9.93
2022-08-17T12:52:27.260Z,10.82
2022-08-17T12:54:58.465Z,10.80
2022-08-17T12:57:36.008Z,10.18
2022-08-17T13:00:17.018Z,9.63
2022-08-17T13:02:55.487Z,9.50
2022-08-17T13:05:37.190Z,9.55
2022-08-17T13:08:17.487Z,9.77
2022-08-17T13:10:57.808Z,9.63
2022-08-17T13:13:36.088Z,9.48
2022-08-17T13:16:20.291Z,9.60
2022-08-17T13:18:59.671Z,9.23
2022-08-17T13:21:31.791Z,8.80
2022-08-17T13:24:13.292Z,8.90
2022-08-17T13:26:50.345Z,8.80
2022-08-17T13:29:20.696Z,9.37
2022-08-17T13:31:56.260Z,9.10
2022-08-17T13:35:12.574Z,8.45
2022-08-17T13:37:35.900Z,9.07
2022-08-17T13:40:11.746Z,8.77
2022-08-17T13:42:55.555Z,9.90
2022-08-17T13:45:35.176Z,9.73
2022-08-17T13:48:13.864Z,8.48
2022-08-17T13:50:51.653Z,9.00
2022-08-17T13:53:52.382Z,9.55
2022-08-17T13:56:48.013Z,9.43
2022-08-17T13:59:52.976Z,8.45
2022-08-17T14:02:20.337Z,8.85
2022-08-17T14:04:50.619Z,8.95
2022-08-17T14:07:21.990Z,8.45
2022-08-17T14:09:51.151Z,9.60
2022-08-17T14:12:23.060Z,9.45
2022-08-17T14:14:59.681Z,9.25
2022-08-17T14:17:38.094Z,9.05
2022-08-17T14:20:10.875Z,9.32
2022-08-17T14:22:44.961Z,8.57
2022-08-17T14:25:16.813Z,9.35
2022-08-17T14:27:52.916Z,10.10
2022-08-17T14:30:29.894Z,8.55
2022-08-17T14:32:59.998Z,8.35
2022-08-17T14:35:30.690Z,8.83
2022-08-17T14:38:00.353Z,8.80
2022-08-17T14:40:29.721Z,8.75
2022-08-17T14:42:59.353Z,8.70
2022-08-17T14:45:32.618Z,9.15
2022-08-17T14:48:10.380Z,9.10
2022-08-17T14:50:45.547Z,9.88
2022-08-17T14:53:17.805Z,9.20
2022-08-17T14:55:48.707Z,8.68
2022-08-17T14:58:19.374Z,9.40
2022-08-17T15:00:52.186Z,8.80
2022-08-17T15:03:21.526Z,9.75
2022-08-17T15:05:50.700Z,9.38
2022-08-17T15:08:20.845Z,9.85
2022-08-17T15:10:54.344Z,9.80
2022-08-17T15:13:29.587Z,10.13
2022-08-17T15:16:09.914Z,10.07
2022-08-17T15:18:39.406Z,9.43
2022-08-17T15:21:11.229Z,9.57
2022-08-17T15:23:41.251Z,9.05
2022-08-17T15:26:13.583Z,9.10
2022-08-17T15:28:42.862Z,10.00
2022-08-17T15:31:12.594Z,9.75
2022-08-17T15:33:42.205Z,11.32
2022-08-17T15:36:11.658Z,9.55
2022-08-17T15:38:44.494Z,9.73
2022-08-17T15:41:16.699Z,9.43
2022-08-17T15:43:48.128Z,10.27
2022-08-17T15:46:23.206Z,8.77
2022-08-17T15:48:54.823Z,10.38
2022-08-17T15:51:29.715Z,9.43
2022-08-17T15:54:19.423Z,10.35
2022-08-17T15:56:52.782Z,9.00
2022-08-17T15:59:22.094Z,9.15
2022-08-17T16:03:07.866Z,10.20
2022-08-17T16:04:46.073Z,9.90
2022-08-17T16:07:21.865Z,10.20
2022-08-17T16:09:53.911Z,10.50
2022-08-17T16:12:23.725Z,9.93
2022-08-17T16:14:54.604Z,8.98
2022-08-17T16:17:38.798Z,9.57
2022-08-17T16:20:20.638Z,8.25
2022-08-17T16:22:51.511Z,8.93
2022-08-17T16:25:53.268Z,8.70
2022-08-17T16:28:16.366Z,9.20
2022-08-17T16:30:46.654Z,9.43
2022-08-17T16:33:18.113Z,9.57
2022-08-17T16:35:50.136Z,10.35
2022-08-17T16:38:20.029Z,10.18
2022-08-17T16:40:49.319Z,8.60
2022-08-17T16:43:18.632Z,8.70
2022-08-17T16:45:52.003Z,9.07
2022-08-17T16:48:21.455Z,9.25
2022-08-17T16:51:03.390Z,9.25
2022-08-17T16:53:33.979Z,9.13
2022-08-17T16:56:03.260Z,8.90
2022-08-17T16:58:32.508Z,8.32
2022-08-17T17:01:02.035Z,8.95
2022-08-17T17:03:32.623Z,9.30
2022-08-17T17:06:15.441Z,8.80
2022-08-17T17:08:58.096Z,7.97
2022-08-17T17:11:35.421Z,9.18
2022-08-17T17:14:29.608Z,9.23
2022-08-17T17:17:15.822Z,10.23
2022-08-17T17:20:02.661Z,9.02
2022-08-17T17:22:49.748Z,8.20
2022-08-17T17:25:22.658Z,9.48
2022-08-17T17:28:06.597Z,8.00
2022-08-17T17:31:03.748Z,8.63
2022-08-17T17:33:49.524Z,8.88
2022-08-17T17:36:34.288Z,8.63
2022-08-17T17:39:14.033Z,8.23
2022-08-17T17:41:57.506Z,9.75
2022-08-17T17:44:35.642Z,8.50
2022-08-17T17:47:05.890Z,8.38
2022-08-17T17:49:41.940Z,9.07
2022-08-17T17:52:15.519Z,11.88
2022-08-17T17:55:15.038Z,8.18
2022-08-17T17:57:59.669Z,8.15
2022-08-17T18:00:53.799Z,8.43
2022-08-17T18:03:47.063Z,9.33
2022-08-17T18:06:22.264Z,9.13
2022-08-17T18:09:04.377Z,9.05
2022-08-17T18:12:04.784Z,8.45
2022-08-17T18:14:37.629Z,9.13
2022-08-17T18:17:08.224Z,8.50
2022-08-17T18:19:41.256Z,8.82
2022-08-17T18:22:19.959Z,9.13
2022-08-17T18:24:57.179Z,8.35
2022-08-17T18:27:31.819Z,8.10
2022-08-17T18:30:21.310Z,8.57
2022-08-17T18:32:50.895Z,8.95
2022-08-17T18:35:29.702Z,8.43
2022-08-17T18:38:24.799Z,8.27
2022-08-17T18:41:02.068Z,8.23
2022-08-17T18:43:52.903Z,9.00
2022-08-17T18:46:37.801Z,7.63
2022-08-17T18:49:11.824Z,8.15
2022-08-17T18:51:44.441Z,8.40
2022-08-17T18:54:21.165Z,8.75
2022-08-17T18:56:54.867Z,8.87
2022-08-17T18:59:25.818Z,8.55
2022-08-17T19:02:38.675Z,8.48
2022-08-17T19:05:28.396Z,9.05
2022-08-17T19:08:26.503Z,8.27
2022-08-17T19:11:23.655Z,8.43
2022-08-17T19:14:17.936Z,9.45
2022-08-17T19:17:12.138Z,9.10
2022-08-17T19:19:58.821Z,8.30
2022-08-17T19:23:21.017Z,8.18
2022-08-17T19:25:56.832Z,8.90
2022-08-17T19:28:48.519Z,9.07
2022-08-17T19:31:27.390Z,8.68
2022-08-17T19:33:57.488Z,8.27
2022-08-17T19:36:39.413Z,8.57
2022-08-17T19:39:47.715Z,8.00
2022-08-17T19:42:38.457Z,7.78
2022-08-17T19:45:18.234Z,8.15
2022-08-17T19:48:04.704Z,8.00
2022-08-17T19:50:43.079Z,8.85
2022-08-17T19:53:36.659Z,7.10
2022-08-17T19:56:41.286Z,8.13
2022-08-17T19:59:13.458Z,8.27
2022-08-17T20:01:49.837Z,7.57
2022-08-17T20:04:19.102Z,8.40
2022-08-17T20:06:54.168Z,8.07
2022-08-17T20:09:35.803Z,8.40
2022-08-17T20:12:11.735Z,8.27
2022-08-17T20:15:09.996Z,7.68
2022-08-17T20:17:48.488Z,8.23
2022-08-17T20:20:29.930Z,9.43
2022-08-17T20:23:27.424Z,7.90
2022-08-17T20:26:01.537Z,7.68
2022-08-17T20:28:36.313Z,7.75
2022-08-17T20:31:42.756Z,8.80
2022-08-17T20:34:37.303Z,7.70
2022-08-17T20:37:07.835Z,7.07
2022-08-17T20:39:51.305Z,7.78
2022-08-17T20:42:23.311Z,7.70
2022-08-17T20:45:03.917Z,8.77
2022-08-17T20:48:14.614Z,7.57
2022-08-17T20:50:49.108Z,9.90
2022-08-17T20:53:50.349Z,7.05
2022-08-17T20:56:47.693Z,7.38
2022-08-17T20:59:26.933Z,6.90
2022-08-17T21:02:18.689Z,8.67
2022-08-17T21:04:55.656Z,7.38
2022-08-17T21:07:54.417Z,7.03
2022-08-17T21:10:23.794Z,7.03
2022-08-17T21:13:39.842Z,7.63
2022-08-17T21:16:28.150Z,7.70
2022-08-17T21:19:24.250Z,6.45
2022-08-17T21:21:59.350Z,7.78
2022-08-17T21:24:45.075Z,7.00
2022-08-17T21:27:20.353Z,6.47
2022-08-17T21:30:16.264Z,7.03
2022-08-17T21:33:22.148Z,6.72
2022-08-17T21:36:13.441Z,7.10
2022-08-17T21:39:10.080Z,6.72
2022-08-17T21:41:55.707Z,6.55
2022-08-17T21:44:40.772Z,6.77
2022-08-17T21:47:25.474Z,6.43
2022-08-17T21:49:56.434Z,6.10
2022-08-17T21:52:28.048Z,6.95
2022-08-17T21:55:03.819Z,6.88
2022-08-17T21:57:34.564Z,6.53
2022-08-17T22:00:07.434Z,6.47
2022-08-17T22:02:38.835Z,6.50
2022-08-17T22:05:11.679Z,6.30
2022-08-17T22:07:51.986Z,5.97
2022-08-17T22:10:40.538Z,7.00
2022-08-17T22:13:20.923Z,6.18
2022-08-17T22:15:54.832Z,7.03
2022-08-17T22:18:30.244Z,7.40
2022-08-17T22:21:02.850Z,7.55
2022-08-17T22:24:01.868Z,6.97
2022-08-17T22:27:01.952Z,6.35
2022-08-17T22:30:29.120Z,6.20
2022-08-17T22:32:58.926Z,6.03
2022-08-17T22:35:31.067Z,5.18
2022-08-17T22:38:20.084Z,6.33
2022-08-17T22:40:51.948Z,6.32
2022-08-17T22:43:27.302Z,6.30
2022-08-17T22:46:02.287Z,5.55
2022-08-17T22:48:32.425Z,6.60
2022-08-17T22:51:12.635Z,5.93
2022-08-17T22:54:13.778Z,5.97
2022-08-17T22:57:24.154Z,5.95
2022-08-17T22:59:57.053Z,6.57
2022-08-17T23:02:30.687Z,6.53
2022-08-17T23:05:14.117Z,5.93
2022-08-17T23:07:44.797Z,7.68
2022-08-17T23:10:16.006Z,6.28
2022-08-17T23:12:45.498Z,6.20
2022-08-17T23:15:20.409Z,5.63
2022-08-17T23:17:49.928Z,6.73
2022-08-17T23:20:19.662Z,8.32
2022-08-17T23:22:52.221Z,6.25
2022-08-17T23:25:33.359Z,7.10
2022-08-17T23:28:04.557Z,6.53
2022-08-17T23:30:36.521Z,6.10
2022-08-17T23:33:08.369Z,7.47
2022-08-17T23:35:39.317Z,7.40
2022-08-17T23:38:15.308Z,6.85
2022-08-17T23:40:44.697Z,6.45
2022-08-17T23:43:24.560Z,6.03
2022-08-17T23:46:00.882Z,7.82
2022-08-17T23:48:35.807Z,10.95
2022-08-17T23:51:11.783Z,9.73
2022-08-17T23:53:46.015Z,9.18
2022-08-17T23:56:16.002Z,6.80
2022-08-17T23:58:46.614Z,5.82
